createdAt,value
2022-08-05T00:01:29.873Z,100628.16
2022-08-05T00:06:39.748Z,100626.31
2022-08-05T00:11:49.393Z,100611.84
2022-08-05T00:16:57.800Z,100629.22
2022-08-05T00:22:00.974Z,100636.81
2022-08-05T00:27:04.569Z,100630.03
2022-08-05T00:32:12.948Z,100653.09
2022-08-05T00:37:18.249Z,100653.78
2022-08-05T00:42:31.798Z,100660.03
2022-08-05T00:47:56.729Z,100648.03
2022-08-05T00:52:57.460Z,100659.50
2022-08-05T00:57:59.846Z,100663.00
2022-08-05T01:03:01.584Z,100656.47
2022-08-05T01:08:42.369Z,100668.72
2022-08-05T01:13:58.950Z,100687.53
2022-08-05T01:19:11.281Z,100686.28
2022-08-05T01:24:32.722Z,100670.25
2022-08-05T01:29:39.084Z,100682.91
2022-08-05T01:34:49.678Z,100689.84
2022-08-05T01:39:53.394Z,100669.09
2022-08-05T01:45:02.202Z,100652.56
2022-08-05T01:50:07.230Z,100660.00
2022-08-05T01:55:14.583Z,100657.00
2022-08-05T02:00:18.619Z,100656.91
2022-08-05T02:05:23.551Z,100671.94
2022-08-05T02:10:28.704Z,100666.63
2022-08-05T02:15:35.726Z,100658.13
2022-08-05T02:20:47.432Z,100664.53
2022-08-05T02:25:52.178Z,100657.88
2022-08-05T02:30:59.030Z,100652.13
2022-08-05T02:36:03.065Z,100656.19
2022-08-05T02:41:17.277Z,100654.44
2022-08-05T02:46:27.621Z,100640.38
2022-08-05T02:52:03.966Z,100641.19
2022-08-05T02:56:52.508Z,100638.00
2022-08-05T03:01:58.217Z,100628.16
2022-08-05T03:07:00.735Z,100629.22
2022-08-05T03:12:02.896Z,100615.41
2022-08-05T03:17:09.111Z,100609.72
2022-08-05T03:22:16.619Z,100614.47
2022-08-05T03:27:22.972Z,100616.13
2022-08-05T03:32:33.797Z,100617.47
2022-08-05T03:37:45.794Z,100625.56
2022-08-05T03:42:52.052Z,100639.34
2022-08-05T03:47:56.880Z,100644.75
2022-08-05T03:55:50.894Z,100642.44
2022-08-05T03:58:30.392Z,100648.81
2022-08-05T04:03:38.131Z,100647.66
2022-08-05T04:08:40.585Z,100659.31
2022-08-05T04:13:50.281Z,100658.91
2022-08-05T04:18:57.614Z,100669.94
2022-08-05T04:24:06.591Z,100669.03
2022-08-05T04:29:10.528Z,100670.66
2022-08-05T04:34:19.685Z,100661.72
2022-08-05T04:39:36.437Z,100658.00
2022-08-05T04:44:38.492Z,100664.78
2022-08-05T04:50:02.598Z,100648.06
2022-08-05T04:55:14.784Z,100664.56
2022-08-05T05:00:18.458Z,100676.28
2022-08-05T05:05:29.166Z,100688.19
2022-08-05T05:10:33.266Z,100709.94
2022-08-05T05:15:57.634Z,100744.22
2022-08-05T05:20:59.207Z,100746.06
2022-08-05T05:26:02.481Z,100726.88
2022-08-05T05:31:05.673Z,100734.34
2022-08-05T05:36:15.688Z,100735.66
2022-08-05T05:41:18.508Z,100778.81
2022-08-05T05:46:20.665Z,100808.97
2022-08-05T05:51:25.979Z,100814.31
2022-08-05T05:56:33.065Z,100825.06
2022-08-05T06:01:38.906Z,100829.38
2022-08-05T06:06:46.659Z,100865.31
2022-08-05T06:12:01.457Z,100854.06
2022-08-05T06:17:22.109Z,100840.22
2022-08-05T06:22:29.790Z,100829.28
2022-08-05T06:28:10.686Z,100840.78
2022-08-05T06:32:57.886Z,100840.59
2022-08-05T06:38:04.278Z,100831.66
2022-08-05T06:43:58.694Z,100828.97
2022-08-05T06:48:55.797Z,100832.00
2022-08-05T06:54:01.697Z,100833.41
2022-08-05T06:59:09.527Z,100855.84
2022-08-05T07:04:13.928Z,100880.84
2022-08-05T07:09:17.398Z,100900.31
2022-08-05T07:14:30.342Z,100892.81
2022-08-05T07:24:58.994Z,100863.75
2022-08-05T07:30:27.919Z,100859.72
2022-08-05T07:36:02.606Z,100886.00
2022-08-05T07:40:47.531Z,100851.75
2022-08-05T07:45:58.753Z,100836.75
2022-08-05T07:51:01.249Z,100840.41
2022-08-05T07:56:59.930Z,100836.94
2022-08-05T08:01:29.881Z,100807.88
2022-08-05T08:06:32.310Z,100830.06
2022-08-05T08:11:51.265Z,100814.63
2022-08-05T08:16:57.352Z,100816.28
2022-08-05T08:21:59.352Z,100857.88
2022-08-05T08:27:07.120Z,100861.75
2022-08-05T08:32:10.788Z,100887.56
2022-08-05T08:37:13.110Z,100897.78
2022-08-05T08:42:34.216Z,100904.75
2022-08-05T08:48:05.917Z,100929.34
2022-08-05T08:53:12.228Z,100908.84
2022-08-05T08:58:16.993Z,100935.16
2022-08-05T09:03:21.750Z,100931.97
2022-08-05T09:08:26.519Z,100937.19
2022-08-05T09:13:31.769Z,100939.25
2022-08-05T09:18:44.292Z,100921.25
2022-08-05T09:23:46.539Z,100944.69
2022-08-05T09:28:59.177Z,100953.81
2022-08-05T09:34:04.550Z,100909.50
2022-08-05T09:39:16.540Z,100917.03
2022-08-05T09:44:37.598Z,100889.59
2022-08-05T09:50:00.823Z,100857.47
2022-08-05T09:55:57.054Z,100888.53
2022-08-05T10:00:30.930Z,100851.06
2022-08-05T10:05:33.558Z,100907.16
2022-08-05T10:10:38.727Z,100899.91
2022-08-05T10:15:42.665Z,100918.25
2022-08-05T10:20:48.407Z,100934.31
2022-08-05T10:25:50.686Z,100944.38
2022-08-05T10:32:52.720Z,100927.72
2022-08-05T10:36:18.394Z,100919.53
2022-08-05T10:41:46.436Z,100924.88
2022-08-05T10:46:53.880Z,100913.69
2022-08-05T10:52:00.237Z,100906.97
2022-08-05T10:57:04.380Z,100887.72
2022-08-05T11:02:14.969Z,100902.91
2022-08-05T11:08:03.277Z,100929.13
2022-08-05T11:12:55.740Z,100948.31
2022-08-05T11:18:11.700Z,100940.53
2022-08-05T11:24:05.317Z,100930.47
2022-08-05T11:28:58.069Z,100931.31
2022-08-05T11:34:09.124Z,100941.50
2022-08-05T11:39:38.142Z,100934.84
2022-08-05T11:44:53.943Z,100941.44
2022-08-05T11:49:59.042Z,100942.63
2022-08-05T11:55:07.687Z,100936.06
2022-08-05T12:00:27.554Z,100931.66
2022-08-05T12:05:39.966Z,100923.56
2022-08-05T12:10:47.706Z,100925.66
2022-08-05T12:15:50.906Z,100918.72
2022-08-05T12:21:10.145Z,100908.03
2022-08-05T12:26:12.493Z,100921.28
2022-08-05T12:31:23.208Z,100928.41
2022-08-05T12:36:37.933Z,100932.81
2022-08-05T12:41:43.541Z,100929.88
2022-08-05T12:46:54.193Z,100941.72
2022-08-05T12:52:13.876Z,100937.91
2022-08-05T12:57:19.740Z,100930.25
2022-08-05T13:02:30.775Z,100919.69
2022-08-05T13:07:59.325Z,100942.75
2022-08-05T13:12:58.383Z,100930.59
2022-08-05T13:18:01.350Z,100941.34
2022-08-05T13:23:07.133Z,100934.03
2022-08-05T13:28:10.629Z,100936.22
2022-08-05T13:33:14.265Z,100943.59
2022-08-05T13:38:38.514Z,100948.69
2022-08-05T13:43:54.534Z,100958.03
2022-08-05T13:49:00.883Z,100959.41
2022-08-05T13:54:12.258Z,100963.00
2022-08-05T13:59:19.452Z,100942.38
2022-08-05T14:04:26.720Z,100947.59
2022-08-05T14:09:30.569Z,100942.31
2022-08-05T14:14:32.651Z,100944.19
2022-08-05T14:19:55.393Z,100948.63
2022-08-05T14:24:59.844Z,100963.25
2022-08-05T14:30:01.687Z,100979.97
2022-08-05T14:35:10.693Z,100969.91
2022-08-05T14:40:16.836Z,100972.16
2022-08-05T14:45:19.324Z,100966.94
2022-08-05T14:50:21.010Z,100950.91
2022-08-05T14:55:24.747Z,100962.25
2022-08-05T15:00:29.427Z,100961.56
2022-08-05T15:06:07.925Z,100968.25
2022-08-05T15:10:56.244Z,100958.69
2022-08-05T15:15:58.267Z,100979.44
2022-08-05T15:21:07.437Z,100976.00
2022-08-05T15:26:11.649Z,100996.06
2022-08-05T15:31:13.770Z,101005.97
2022-08-05T15:36:24.227Z,101019.81
2022-08-05T15:41:56.443Z,101003.72
2022-08-05T15:46:52.601Z,101015.00
2022-08-05T15:52:04.492Z,101028.66
2022-08-05T15:57:18.149Z,101013.19
2022-08-05T16:02:25.592Z,101022.19
2022-08-05T16:07:29.646Z,101045.09
2022-08-05T16:12:33.521Z,101058.34
2022-08-05T16:17:35.935Z,101066.84
2022-08-05T16:22:38.341Z,101090.81
2022-08-05T16:27:59.879Z,101091.69
2022-08-05T16:33:05.009Z,101129.09
2022-08-05T16:38:24.055Z,101132.38
2022-08-05T16:43:32.190Z,101122.94
2022-08-05T16:48:35.497Z,101130.81
2022-08-05T16:54:04.180Z,101148.16
2022-08-05T16:59:08.107Z,101180.06
2022-08-05T17:04:10.365Z,101197.78
2022-08-05T17:09:12.098Z,101207.59
2022-08-05T17:14:34.307Z,101205.97
2022-08-05T17:19:40.043Z,101222.44
2022-08-05T17:24:46.413Z,101222.66
2022-08-05T17:30:03.979Z,101227.69
2022-08-05T17:35:07.421Z,101239.38
2022-08-05T17:40:12.595Z,101245.84
2022-08-05T17:45:18.019Z,101238.00
2022-08-05T17:50:28.826Z,101248.59
2022-08-05T17:55:38.001Z,101261.00
2022-08-05T18:00:47.892Z,101254.06
2022-08-05T18:05:53.595Z,101269.31
2022-08-05T18:10:56.369Z,101284.34
2022-08-05T18:16:00.498Z,101291.34
2022-08-05T18:21:05.135Z,101292.06
2022-08-05T18:26:18.179Z,101300.31
2022-08-05T18:31:22.634Z,101300.97
2022-08-05T18:36:28.047Z,101303.81
2022-08-05T18:41:55.477Z,101325.97
2022-08-05T18:46:54.110Z,101351.13
2022-08-05T18:52:04.810Z,101357.38
2022-08-05T18:57:10.940Z,101355.75
2022-08-05T19:02:27.828Z,101370.03
2022-08-05T19:07:42.329Z,101375.38
2022-08-05T19:12:47.669Z,101387.38
2022-08-05T19:17:59.024Z,101384.31
2022-08-05T19:24:04.189Z,101384.16
2022-08-05T19:28:34.507Z,101401.56
2022-08-05T19:33:37.838Z,101410.59
2022-08-05T19:38:42.215Z,101407.16
2022-08-05T19:44:07.011Z,101415.94
2022-08-05T19:49:12.488Z,101427.03
2022-08-05T19:54:26.635Z,101419.94
2022-08-05T20:00:00.590Z,101433.66
2022-08-05T20:04:59.646Z,101439.91
2022-08-05T20:10:04.746Z,101439.78
2022-08-05T20:15:08.770Z,101449.19
2022-08-05T20:20:13.099Z,101450.53
2022-08-05T20:25:14.810Z,101465.84
2022-08-05T20:30:18.248Z,101483.22
2022-08-05T20:35:23.262Z,101491.47
2022-08-05T20:40:25.692Z,101497.38
2022-08-05T20:45:56.478Z,101511.94
2022-08-05T20:50:52.576Z,101527.34
2022-08-05T20:56:07.965Z,101528.28
2022-08-05T21:01:11.381Z,101544.56
2022-08-05T21:06:28.519Z,101549.28
2022-08-05T21:12:06.588Z,101548.50
2022-08-05T21:16:54.883Z,101574.78
2022-08-05T21:21:58.165Z,101573.06
2022-08-05T21:27:00.076Z,101570.63
2022-08-05T21:32:03.529Z,101568.09
2022-08-05T21:37:06.985Z,101573.63
2022-08-05T21:42:30.775Z,101573.03
2022-08-05T21:47:55.640Z,101569.56
2022-08-05T21:52:59.173Z,101594.78
2022-08-05T21:58:10.492Z,101589.91
2022-08-05T22:03:13.850Z,101592.66
2022-08-05T22:08:22.449Z,101566.88
2022-08-05T22:14:34.342Z,101599.78
2022-08-05T22:18:49.028Z,101610.38
2022-08-05T22:24:01.190Z,101606.94
2022-08-05T22:29:06.547Z,101621.19
2022-08-05T22:34:08.530Z,101627.47
2022-08-05T22:39:16.344Z,101621.44
2022-08-05T22:44:19.235Z,101630.34
2022-08-05T22:50:17.431Z,101628.75
2022-08-05T22:54:48.951Z,101638.03
2022-08-05T22:59:54.141Z,101643.91
2022-08-05T23:04:56.456Z,101645.13
2022-08-05T23:10:02.037Z,101640.03
2022-08-05T23:15:09.012Z,101647.44
2022-08-05T23:20:17.505Z,101655.72
2022-08-05T23:25:51.905Z,101640.03
2022-08-05T23:30:53.663Z,101651.06
2022-08-05T23:35:56.665Z,101668.25
2022-08-05T23:41:00.192Z,101674.72
2022-08-05T23:46:05.077Z,101678.47
2022-08-05T23:51:22.103Z,101678.69
2022-08-05T23:56:27.323Z,101684.31
